sensor_id;sensor_type;location;lat;lon;timestamp;pressure;altitude;pressure_sealevel;temperature;humidity
84188;BME280;74316;45.648;13.764;2024-01-06T00:00:11;100200.38;;;20.62;54.72
84188;BME280;74316;45.648;13.764;2024-01-06T00:02:37;100196.06;;;20.61;55.43
84188;BME280;74316;45.648;13.764;2024-01-06T00:05:04;100184.53;;;20.60;54.68
84188;BME280;74316;45.648;13.764;2024-01-06T00:07:30;100172.19;;;20.59;55.36
84188;BME280;74316;45.648;13.764;2024-01-06T00:09:56;100181.03;;;20.60;55.00
84188;BME280;74316;45.648;13.764;2024-01-06T00:12:22;100166.00;;;20.59;55.08
84188;BME280;74316;45.648;13.764;2024-01-06T00:14:48;100157.38;;;20.57;55.97
84188;BME280;74316;45.648;13.764;2024-01-06T00:17:14;100162.75;;;20.57;55.62
84188;BME280;74316;45.648;13.764;2024-01-06T00:19:40;100150.38;;;20.56;55.11
84188;BME280;74316;45.648;13.764;2024-01-06T00:22:06;100148.75;;;20.55;55.74
84188;BME280;74316;45.648;13.764;2024-01-06T00:24:32;100155.16;;;20.54;55.59
84188;BME280;74316;45.648;13.764;2024-01-06T00:26:58;100147.13;;;20.54;55.30
84188;BME280;74316;45.648;13.764;2024-01-06T00:29:24;100141.97;;;20.52;55.63
84188;BME280;74316;45.648;13.764;2024-01-06T00:31:50;100133.13;;;20.52;55.88
84188;BME280;74316;45.648;13.764;2024-01-06T00:34:16;100134.16;;;20.51;55.32
84188;BME280;74316;45.648;13.764;2024-01-06T00:36:42;100140.56;;;20.50;55.58
84188;BME280;74316;45.648;13.764;2024-01-06T00:39:08;100137.06;;;20.49;55.71
84188;BME280;74316;45.648;13.764;2024-01-06T00:41:37;100138.94;;;20.49;55.59
84188;BME280;74316;45.648;13.764;2024-01-06T00:44:03;100131.94;;;20.48;55.67
84188;BME280;74316;45.648;13.764;2024-01-06T00:46:30;100131.94;;;20.48;56.03
84188;BME280;74316;45.648;13.764;2024-01-06T00:48:55;100130.31;;;20.47;55.92
84188;BME280;74316;45.648;13.764;2024-01-06T00:51:24;100141.03;;;20.47;55.74
84188;BME280;74316;45.648;13.764;2024-01-06T00:53:50;100137.78;;;20.45;55.99
84188;BME280;74316;45.648;13.764;2024-01-06T00:56:16;100143.13;;;20.45;55.94
84188;BME280;74316;45.648;13.764;2024-01-06T00:58:42;100127.06;;;20.45;56.12
84188;BME280;74316;45.648;13.764;2024-01-06T01:01:09;100133.47;;;20.44;56.28
84188;BME280;74316;45.648;13.764;2024-01-06T01:03:35;100129.13;;;20.42;55.50
84188;BME280;74316;45.648;13.764;2024-01-06T01:06:01;100122.09;;;20.41;56.48
84188;BME280;74316;45.648;13.764;2024-01-06T01:08:28;100130.16;;;20.41;55.82
84188;BME280;74316;45.648;13.764;2024-01-06T01:10:54;100123.78;;;20.42;56.09
84188;BME280;74316;45.648;13.764;2024-01-06T01:13:20;100125.84;;;20.40;55.94
84188;BME280;74316;45.648;13.764;2024-01-06T01:15:46;100113.50;;;20.39;55.51
84188;BME280;74316;45.648;13.764;2024-01-06T01:18:12;100113.50;;;20.39;56.38
84188;BME280;74316;45.648;13.764;2024-01-06T01:20:37;100102.78;;;20.39;56.23
84188;BME280;74316;45.648;13.764;2024-01-06T01:23:04;100103.00;;;20.38;56.58
84188;BME280;74316;45.648;13.764;2024-01-06T01:25:29;100104.88;;;20.37;56.40
84188;BME280;74316;45.648;13.764;2024-01-06T01:27:56;100109.41;;;20.37;56.25
84188;BME280;74316;45.648;13.764;2024-01-06T01:30:22;100110.22;;;20.37;56.13
84188;BME280;74316;45.648;13.764;2024-01-06T01:32:48;100108.59;;;20.36;55.97
84188;BME280;74316;45.648;13.764;2024-01-06T01:35:14;100106.97;;;20.35;56.50
84188;BME280;74316;45.648;13.764;2024-01-06T01:37:40;100099.97;;;20.34;56.27
84188;BME280;74316;45.648;13.764;2024-01-06T01:40:06;100099.97;;;20.34;55.75
84188;BME280;74316;45.648;13.764;2024-01-06T01:42:33;100099.97;;;20.34;55.83
84188;BME280;74316;45.648;13.764;2024-01-06T01:44:58;100085.78;;;20.34;56.17
84188;BME280;74316;45.648;13.764;2024-01-06T01:47:24;100088.44;;;20.34;55.92
84188;BME280;74316;45.648;13.764;2024-01-06T01:49:51;100080.63;;;20.32;56.07
84188;BME280;74316;45.648;13.764;2024-01-06T01:52:17;100076.06;;;20.33;55.97
84188;BME280;74316;45.648;13.764;2024-01-06T01:54:45;100085.16;;;20.32;56.37
84188;BME280;74316;45.648;13.764;2024-01-06T01:57:12;100077.94;;;20.32;56.41
84188;BME280;74316;45.648;13.764;2024-01-06T01:59:39;100087.03;;;20.31;56.14
84188;BME280;74316;45.648;13.764;2024-01-06T02:02:06;100081.91;;;20.30;56.22
84188;BME280;74316;45.648;13.764;2024-01-06T02:04:32;100081.09;;;20.29;55.74
84188;BME280;74316;45.648;13.764;2024-01-06T02:06:58;100087.25;;;20.30;56.12
84188;BME280;74316;45.648;13.764;2024-01-06T02:09:25;100092.63;;;20.30;55.69
84188;BME280;74316;45.648;13.764;2024-01-06T02:11:54;100091.78;;;20.29;55.94
84188;BME280;74316;45.648;13.764;2024-01-06T02:14:20;100097.16;;;20.29;55.89
84188;BME280;74316;45.648;13.764;2024-01-06T02:16:47;100092.84;;;20.28;56.09
84188;BME280;74316;45.648;13.764;2024-01-06T02:19:13;100100.88;;;20.28;56.53
84188;BME280;74316;45.648;13.764;2024-01-06T02:21:42;100096.56;;;20.27;56.28
84188;BME280;74316;45.648;13.764;2024-01-06T02:24:08;100100.31;;;20.26;55.74
84188;BME280;74316;45.648;13.764;2024-01-06T02:26:34;100102.97;;;20.26;56.12
84188;BME280;74316;45.648;13.764;2024-01-06T02:29:00;100102.16;;;20.26;55.82
84188;BME280;74316;45.648;13.764;2024-01-06T02:31:27;100096.00;;;20.25;56.43
84188;BME280;74316;45.648;13.764;2024-01-06T02:33:53;100102.41;;;20.24;56.55
84188;BME280;74316;45.648;13.764;2024-01-06T02:36:18;100100.53;;;20.25;56.08
84188;BME280;74316;45.648;13.764;2024-01-06T02:38:44;100099.72;;;20.24;56.04
84188;BME280;74316;45.648;13.764;2024-01-06T02:41:10;100094.38;;;20.24;56.21
84188;BME280;74316;45.648;13.764;2024-01-06T02:43:36;100096.44;;;20.22;55.36
84188;BME280;74316;45.648;13.764;2024-01-06T02:46:03;100091.06;;;20.22;55.84
84188;BME280;74316;45.648;13.764;2024-01-06T02:48:28;100096.44;;;20.22;55.64
84188;BME280;74316;45.648;13.764;2024-01-06T02:50:56;100100.97;;;20.22;55.67
84188;BME280;74316;45.648;13.764;2024-01-06T02:53:22;100103.88;;;20.20;55.67
84188;BME280;74316;45.648;13.764;2024-01-06T02:55:48;100104.69;;;20.21;55.94
84188;BME280;74316;45.648;13.764;2024-01-06T02:58:14;100097.47;;;20.21;56.03
84188;BME280;74316;45.648;13.764;2024-01-06T03:00:40;100095.03;;;20.20;55.84
84188;BME280;74316;45.648;13.764;2024-01-06T03:03:06;100092.34;;;20.20;56.02
84188;BME280;74316;45.648;13.764;2024-01-06T03:05:32;100096.06;;;20.19;56.21
84188;BME280;74316;45.648;13.764;2024-01-06T03:07:58;100097.94;;;20.18;55.73
84188;BME280;74316;45.648;13.764;2024-01-06T03:10:24;100099.81;;;20.18;56.28
84188;BME280;74316;45.648;13.764;2024-01-06T03:12:54;100091.19;;;20.16;55.52
84188;BME280;74316;45.648;13.764;2024-01-06T03:15:20;100073.25;;;20.16;56.12
84188;BME280;74316;45.648;13.764;2024-01-06T03:17:46;100074.31;;;20.15;55.92
84188;BME280;74316;45.648;13.764;2024-01-06T03:20:12;100084.19;;;20.14;55.66
84188;BME280;74316;45.648;13.764;2024-01-06T03:22:38;100083.38;;;20.14;56.16
84188;BME280;74316;45.648;13.764;2024-01-06T03:25:04;100077.22;;;20.13;56.01
84188;BME280;74316;45.648;13.764;2024-01-06T03:27:31;100083.38;;;20.14;56.07
84188;BME280;74316;45.648;13.764;2024-01-06T03:29:57;100076.41;;;20.13;55.73
84188;BME280;74316;45.648;13.764;2024-01-06T03:32:24;100071.03;;;20.13;55.57
84188;BME280;74316;45.648;13.764;2024-01-06T03:34:50;100074.75;;;20.12;55.81
84188;BME280;74316;45.648;13.764;2024-01-06T03:37:16;100075.78;;;20.11;55.91
84188;BME280;74316;45.648;13.764;2024-01-06T03:39:42;100066.94;;;20.10;56.05
84188;BME280;74316;45.648;13.764;2024-01-06T03:42:13;100073.09;;;20.11;55.98
84188;BME280;74316;45.648;13.764;2024-01-06T03:44:39;100073.34;;;20.09;56.20
84188;BME280;74316;45.648;13.764;2024-01-06T03:47:05;100074.16;;;20.10;55.33
84188;BME280;74316;45.648;13.764;2024-01-06T03:49:32;100071.47;;;20.10;56.18
84188;BME280;74316;45.648;13.764;2024-01-06T03:52:01;100067.16;;;20.09;55.84
84188;BME280;74316;45.648;13.764;2024-01-06T03:54:27;100068.22;;;20.08;55.68
84188;BME280;74316;45.648;13.764;2024-01-06T03:56:53;100068.22;;;20.08;56.06
84188;BME280;74316;45.648;13.764;2024-01-06T03:59:19;100066.34;;;20.08;56.14
84188;BME280;74316;45.648;13.764;2024-01-06T04:01:45;100064.50;;;20.09;55.90
84188;BME280;74316;45.648;13.764;2024-01-06T04:04:11;100054.81;;;20.08;56.10
84188;BME280;74316;45.648;13.764;2024-01-06T04:06:37;100061.22;;;20.07;56.24
84188;BME280;74316;45.648;13.764;2024-01-06T04:09:03;100059.59;;;20.06;56.12
84188;BME280;74316;45.648;13.764;2024-01-06T04:11:29;100066.59;;;20.07;55.55
84188;BME280;74316;45.648;13.764;2024-01-06T04:13:54;100054.25;;;20.06;56.34
84188;BME280;74316;45.648;13.764;2024-01-06T04:16:20;100052.63;;;20.05;55.88
84188;BME280;74316;45.648;13.764;2024-01-06T04:18:46;100047.25;;;20.05;55.91
84188;BME280;74316;45.648;13.764;2024-01-06T04:21:11;100042.97;;;20.04;55.86
84188;BME280;74316;45.648;13.764;2024-01-06T04:23:37;100051.00;;;20.04;55.95
84188;BME280;74316;45.648;13.764;2024-01-06T04:26:03;100040.28;;;20.04;56.08
84188;BME280;74316;45.648;13.764;2024-01-06T04:28:30;100042.97;;;20.04;56.07
84188;BME280;74316;45.648;13.764;2024-01-06T04:30:56;100042.13;;;20.03;55.82
84188;BME280;74316;45.648;13.764;2024-01-06T04:33:22;100044.00;;;20.03;56.24
84188;BME280;74316;45.648;13.764;2024-01-06T04:35:47;100042.13;;;20.03;56.09
84188;BME280;74316;45.648;13.764;2024-01-06T04:38:13;100044.00;;;20.03;55.85
84188;BME280;74316;45.648;13.764;2024-01-06T04:40:39;100031.63;;;20.02;55.82
84188;BME280;74316;45.648;13.764;2024-01-06T04:43:05;100024.66;;;20.01;56.02
84188;BME280;74316;45.648;13.764;2024-01-06T04:45:31;100026.28;;;20.02;56.21
84188;BME280;74316;45.648;13.764;2024-01-06T04:47:57;100035.13;;;20.02;55.83
84188;BME280;74316;45.648;13.764;2024-01-06T04:50:23;100031.63;;;20.02;56.31
84188;BME280;74316;45.648;13.764;2024-01-06T04:52:48;100034.09;;;20.03;55.73
84188;BME280;74316;45.648;13.764;2024-01-06T04:55:14;100031.19;;;20.05;55.98
84188;BME280;74316;45.648;13.764;2024-01-06T04:57:40;100024.22;;;20.04;56.27
84188;BME280;74316;45.648;13.764;2024-01-06T05:00:07;100018.84;;;20.04;55.86
84188;BME280;74316;45.648;13.764;2024-01-06T05:02:33;100029.56;;;20.04;55.78
84188;BME280;74316;45.648;13.764;2024-01-06T05:04:59;100026.28;;;20.02;55.87
84188;BME280;74316;45.648;13.764;2024-01-06T05:07:25;100023.00;;;20.00;56.10
84188;BME280;74316;45.648;13.764;2024-01-06T05:09:51;100019.75;;;19.98;55.99
84188;BME280;74316;45.648;13.764;2024-01-06T05:12:18;100018.94;;;19.97;56.43
84188;BME280;74316;45.648;13.764;2024-01-06T05:14:44;100019.75;;;19.98;56.55
84188;BME280;74316;45.648;13.764;2024-01-06T05:17:10;100025.94;;;19.98;56.14
84188;BME280;74316;45.648;13.764;2024-01-06T05:19:36;100021.38;;;19.99;56.23
84188;BME280;74316;45.648;13.764;2024-01-06T05:22:02;100016.84;;;19.99;56.48
84188;BME280;74316;45.648;13.764;2024-01-06T05:24:28;100013.94;;;20.01;56.58
84188;BME280;74316;45.648;13.764;2024-01-06T05:26:53;100009.19;;;20.03;57.20
84188;BME280;74316;45.648;13.764;2024-01-06T05:29:19;100012.44;;;20.05;56.55
84188;BME280;74316;45.648;13.764;2024-01-06T05:31:45;100014.66;;;20.08;56.20
84188;BME280;74316;45.648;13.764;2024-01-06T05:34:13;100008.84;;;20.11;56.48
84188;BME280;74316;45.648;13.764;2024-01-06T05:36:38;100018.28;;;20.13;56.00
84188;BME280;74316;45.648;13.764;2024-01-06T05:39:04;100016.19;;;20.16;56.49
84188;BME280;74316;45.648;13.764;2024-01-06T05:41:37;100016.53;;;20.19;56.58
84188;BME280;74316;45.648;13.764;2024-01-06T05:44:03;100010.72;;;20.22;56.74
84188;BME280;74316;45.648;13.764;2024-01-06T05:46:33;100012.63;;;20.33;56.52
84188;BME280;74316;45.648;13.764;2024-01-06T05:48:59;100000.84;;;20.34;56.86
84188;BME280;74316;45.648;13.764;2024-01-06T05:51:25;100002.25;;;20.37;57.15
84188;BME280;74316;45.648;13.764;2024-01-06T05:53:51;99997.47;;;20.39;57.11
84188;BME280;74316;45.648;13.764;2024-01-06T05:56:26;100008.56;;;20.42;57.04
84188;BME280;74316;45.648;13.764;2024-01-06T05:58:53;99999.25;;;20.45;56.70
84188;BME280;74316;45.648;13.764;2024-01-06T06:01:19;99995.88;;;20.50;56.68
84188;BME280;74316;45.648;13.764;2024-01-06T06:03:48;99999.94;;;20.52;56.26
84188;BME280;74316;45.648;13.764;2024-01-06T06:06:15;99989.59;;;20.56;56.21
84188;BME280;74316;45.648;13.764;2024-01-06T06:08:42;99988.53;;;20.57;56.36
84188;BME280;74316;45.648;13.764;2024-01-06T06:11:07;99987.00;;;20.61;56.35
84188;BME280;74316;45.648;13.764;2024-01-06T06:13:40;99991.31;;;20.62;56.32
84188;BME280;74316;45.648;13.764;2024-01-06T06:16:07;99989.81;;;20.66;56.15
84188;BME280;74316;45.648;13.764;2024-01-06T06:18:32;99989.59;;;20.67;56.57
84188;BME280;74316;45.648;13.764;2024-01-06T06:20:59;99990.16;;;20.69;56.06
84188;BME280;74316;45.648;13.764;2024-01-06T06:23:26;99996.91;;;20.72;55.90
84188;BME280;74316;45.648;13.764;2024-01-06T06:25:52;99989.47;;;20.74;56.37
84188;BME280;74316;45.648;13.764;2024-01-06T06:28:17;99988.41;;;20.75;56.68
84188;BME280;74316;45.648;13.764;2024-01-06T06:30:43;99988.41;;;20.75;56.54
84188;BME280;74316;45.648;13.764;2024-01-06T06:33:10;99988.41;;;20.75;56.83
84188;BME280;74316;45.648;13.764;2024-01-06T06:35:37;99983.06;;;20.75;56.06
84188;BME280;74316;45.648;13.764;2024-01-06T06:38:02;99983.06;;;20.75;56.57
84188;BME280;74316;45.648;13.764;2024-01-06T06:40:29;99983.06;;;20.75;56.32
84188;BME280;74316;45.648;13.764;2024-01-06T06:42:55;99977.69;;;20.75;56.17
84188;BME280;74316;45.648;13.764;2024-01-06T06:45:21;99981.19;;;20.76;56.29
84188;BME280;74316;45.648;13.764;2024-01-06T06:47:49;99978.75;;;20.74;56.76
84188;BME280;74316;45.648;13.764;2024-01-06T06:50:17;99981.44;;;20.74;56.69
84188;BME280;74316;45.648;13.764;2024-01-06T06:52:44;99979.31;;;20.76;55.98
84188;BME280;74316;45.648;13.764;2024-01-06T06:55:10;99979.31;;;20.76;56.09
84188;BME280;74316;45.648;13.764;2024-01-06T06:57:36;99980.38;;;20.75;56.39
84188;BME280;74316;45.648;13.764;2024-01-06T07:00:02;99977.69;;;20.75;56.60
84188;BME280;74316;45.648;13.764;2024-01-06T07:02:27;99979.56;;;20.75;56.75
84188;BME280;74316;45.648;13.764;2024-01-06T07:04:53;99976.06;;;20.74;55.99
84188;BME280;74316;45.648;13.764;2024-01-06T07:07:19;99976.88;;;20.75;56.60
84188;BME280;74316;45.648;13.764;2024-01-06T07:09:45;99976.88;;;20.75;56.66
84188;BME280;74316;45.648;13.764;2024-01-06T07:12:11;99969.06;;;20.73;56.80
84188;BME280;74316;45.648;13.764;2024-01-06T07:14:38;99981.44;;;20.74;56.27
84188;BME280;74316;45.648;13.764;2024-01-06T07:17:04;99981.44;;;20.74;56.68
84188;BME280;74316;45.648;13.764;2024-01-06T07:19:33;99977.09;;;20.73;56.87
84188;BME280;74316;45.648;13.764;2024-01-06T07:22:02;99983.06;;;20.75;57.01
84188;BME280;74316;45.648;13.764;2024-01-06T07:24:28;99981.88;;;20.71;56.19
84188;BME280;74316;45.648;13.764;2024-01-06T07:26:54;99977.00;;;20.68;56.21
84188;BME280;74316;45.648;13.764;2024-01-06T07:29:20;99977.00;;;20.68;56.99
84188;BME280;74316;45.648;13.764;2024-01-06T07:31:46;99982.34;;;20.68;57.35
84188;BME280;74316;45.648;13.764;2024-01-06T07:34:12;99982.84;;;20.65;57.00
84188;BME280;74316;45.648;13.764;2024-01-06T07:36:38;99988.19;;;20.65;55.98
84188;BME280;74316;45.648;13.764;2024-01-06T07:39:05;99987.38;;;20.64;55.96
84188;BME280;74316;45.648;13.764;2024-01-06T07:41:31;99981.22;;;20.64;55.54
84188;BME280;74316;45.648;13.764;2024-01-06T07:43:58;99988.63;;;20.62;56.36
84188;BME280;74316;45.648;13.764;2024-01-06T07:46:24;99986.56;;;20.64;56.29
84188;BME280;74316;45.648;13.764;2024-01-06T07:48:50;99991.94;;;20.64;56.26
84188;BME280;74316;45.648;13.764;2024-01-06T07:51:16;99995.19;;;20.66;56.12
84188;BME280;74316;45.648;13.764;2024-01-06T07:53:42;99989.81;;;20.66;55.73
84188;BME280;74316;45.648;13.764;2024-01-06T07:56:09;99996.81;;;20.67;56.24
84188;BME280;74316;45.648;13.764;2024-01-06T07:58:34;100000.06;;;20.69;56.06
84188;BME280;74316;45.648;13.764;2024-01-06T08:01:00;99999.59;;;20.72;55.92
84188;BME280;74316;45.648;13.764;2024-01-06T08:03:27;99986.66;;;20.69;56.37
84188;BME280;74316;45.648;13.764;2024-01-06T08:05:52;99994.22;;;20.72;56.37
84188;BME280;74316;45.648;13.764;2024-01-06T08:08:19;99998.53;;;20.73;55.89
84188;BME280;74316;45.648;13.764;2024-01-06T08:10:45;99997.50;;;20.74;56.09
84188;BME280;74316;45.648;13.764;2024-01-06T08:13:12;99994.84;;;20.74;56.41
84188;BME280;74316;45.648;13.764;2024-01-06T08:15:38;99996.66;;;20.74;56.27
84188;BME280;74316;45.648;13.764;2024-01-06T08:18:03;99995.84;;;20.73;56.17
84188;BME280;74316;45.648;13.764;2024-01-06T08:20:29;99995.84;;;20.73;56.03
84188;BME280;74316;45.648;13.764;2024-01-06T08:22:56;99990.50;;;20.73;55.70
84188;BME280;74316;45.648;13.764;2024-01-06T08:25:21;99986.19;;;20.72;56.37
84188;BME280;74316;45.648;13.764;2024-01-06T08:27:47;99988.06;;;20.71;56.37
84188;BME280;74316;45.648;13.764;2024-01-06T08:30:13;99988.88;;;20.72;55.96
84188;BME280;74316;45.648;13.764;2024-01-06T08:32:39;99987.25;;;20.71;56.13
84188;BME280;74316;45.648;13.764;2024-01-06T08:35:05;99986.44;;;20.70;56.06
84188;BME280;74316;45.648;13.764;2024-01-06T08:37:31;99989.09;;;20.70;56.22
84188;BME280;74316;45.648;13.764;2024-01-06T08:39:57;99986.44;;;20.70;56.44
84188;BME280;74316;45.648;13.764;2024-01-06T08:42:22;99985.59;;;20.70;56.42
84188;BME280;74316;45.648;13.764;2024-01-06T08:44:49;99988.28;;;20.70;56.58
84188;BME280;74316;45.648;13.764;2024-01-06T08:47:15;99984.78;;;20.69;56.28
84188;BME280;74316;45.648;13.764;2024-01-06T08:49:41;99992.03;;;20.69;56.10
84188;BME280;74316;45.648;13.764;2024-01-06T08:52:08;99985.59;;;20.70;56.08
84188;BME280;74316;45.648;13.764;2024-01-06T08:54:34;99986.09;;;20.67;56.71
84188;BME280;74316;45.648;13.764;2024-01-06T08:57:00;99991.44;;;20.67;56.29
84188;BME280;74316;45.648;13.764;2024-01-06T08:59:27;99991.44;;;20.67;56.50
84188;BME280;74316;45.648;13.764;2024-01-06T09:01:52;99996.00;;;20.66;56.34
84188;BME280;74316;45.648;13.764;2024-01-06T09:04:19;99995.19;;;20.66;57.05
84188;BME280;74316;45.648;13.764;2024-01-06T09:06:45;99994.59;;;20.64;56.38
84188;BME280;74316;45.648;13.764;2024-01-06T09:09:12;99991.94;;;20.64;57.31
84188;BME280;74316;45.648;13.764;2024-01-06T09:11:37;99988.19;;;20.65;56.74
84188;BME280;74316;45.648;13.764;2024-01-06T09:14:03;99987.38;;;20.64;56.62
84188;BME280;74316;45.648;13.764;2024-01-06T09:16:29;99983.28;;;20.62;57.19
84188;BME280;74316;45.648;13.764;2024-01-06T09:18:55;99991.94;;;20.64;57.37
84188;BME280;74316;45.648;13.764;2024-01-06T09:21:21;99988.63;;;20.62;57.35
84188;BME280;74316;45.648;13.764;2024-01-06T09:23:48;99986.19;;;20.60;57.31
84188;BME280;74316;45.648;13.764;2024-01-06T09:26:14;99989.69;;;20.61;57.32
84188;BME280;74316;45.648;13.764;2024-01-06T09:28:41;99994.47;;;20.59;57.51
84188;BME280;74316;45.648;13.764;2024-01-06T09:31:07;99996.91;;;20.60;56.88
84188;BME280;74316;45.648;13.764;2024-01-06T09:33:33;99992.59;;;20.59;56.48
84188;BME280;74316;45.648;13.764;2024-01-06T09:36:00;99990.75;;;20.60;57.43
84188;BME280;74316;45.648;13.764;2024-01-06T09:38:26;99989.13;;;20.59;56.78
84188;BME280;74316;45.648;13.764;2024-01-06T09:40:53;99987.50;;;20.58;57.46
84188;BME280;74316;45.648;13.764;2024-01-06T09:43:19;99980.50;;;20.57;57.20
84188;BME280;74316;45.648;13.764;2024-01-06T09:45:56;99984.22;;;20.56;57.20
84188;BME280;74316;45.648;13.764;2024-01-06T09:48:28;99976.44;;;20.54;56.92
84188;BME280;74316;45.648;13.764;2024-01-06T09:50:56;99980.75;;;20.55;57.08
84188;BME280;74316;45.648;13.764;2024-01-06T09:53:24;99982.59;;;20.55;56.95
84188;BME280;74316;45.648;13.764;2024-01-06T09:55:55;99977.25;;;20.55;57.18
84188;BME280;74316;45.648;13.764;2024-01-06T09:58:21;99976.44;;;20.54;57.11
84188;BME280;74316;45.648;13.764;2024-01-06T10:00:48;99980.97;;;20.54;57.04
84188;BME280;74316;45.648;13.764;2024-01-06T10:03:14;99975.63;;;20.54;57.39
84188;BME280;74316;45.648;13.764;2024-01-06T10:05:40;99977.44;;;20.53;57.51
84188;BME280;74316;45.648;13.764;2024-01-06T10:08:06;99964.28;;;20.52;57.44
84188;BME280;74316;45.648;13.764;2024-01-06T10:10:35;99962.66;;;20.51;57.73
84188;BME280;74316;45.648;13.764;2024-01-06T10:13:02;99958.34;;;20.50;57.08
84188;BME280;74316;45.648;13.764;2024-01-06T10:15:28;99957.53;;;20.49;57.02
84188;BME280;74316;45.648;13.764;2024-01-06T10:17:54;99955.09;;;20.48;57.61
84188;BME280;74316;45.648;13.764;2024-01-06T10:20:21;99948.13;;;20.47;57.17
84188;BME280;74316;45.648;13.764;2024-01-06T10:22:46;99948.13;;;20.47;57.68
84188;BME280;74316;45.648;13.764;2024-01-06T10:25:12;99937.41;;;20.47;57.37
84188;BME280;74316;45.648;13.764;2024-01-06T10:27:40;99941.13;;;20.46;57.68
84188;BME280;74316;45.648;13.764;2024-01-06T10:30:07;99941.13;;;20.46;56.90
84188;BME280;74316;45.648;13.764;2024-01-06T10:32:34;99937.88;;;20.44;57.03
84188;BME280;74316;45.648;13.764;2024-01-06T10:35:01;99935.53;;;20.47;57.10
84188;BME280;74316;45.648;13.764;2024-01-06T10:37:28;99930.41;;;20.46;56.97
84188;BME280;74316;45.648;13.764;2024-01-06T10:42:32;99924.25;;;20.45;56.61
84188;BME280;74316;45.648;13.764;2024-01-06T10:44:59;99921.31;;;20.47;57.40
84188;BME280;74316;45.648;13.764;2024-01-06T10:47:27;99918.88;;;20.45;58.13
84188;BME280;74316;45.648;13.764;2024-01-06T10:50:00;99910.59;;;20.47;57.71
84188;BME280;74316;45.648;13.764;2024-01-06T10:52:29;99915.47;;;20.50;57.43
84188;BME280;74316;45.648;13.764;2024-01-06T10:54:56;99912.47;;;20.46;57.57
84188;BME280;74316;45.648;13.764;2024-01-06T10:57:22;99906.88;;;20.48;57.74
84188;BME280;74316;45.648;13.764;2024-01-06T10:59:52;99906.88;;;20.48;57.39
84188;BME280;74316;45.648;13.764;2024-01-06T11:02:18;99906.06;;;20.47;58.25
84188;BME280;74316;45.648;13.764;2024-01-06T11:04:45;99907.44;;;20.50;57.14
84188;BME280;74316;45.648;13.764;2024-01-06T11:07:15;99899.41;;;20.50;57.86
84188;BME280;74316;45.648;13.764;2024-01-06T11:10:09;99892.91;;;20.46;58.22
84188;BME280;74316;45.648;13.764;2024-01-06T11:12:32;99885.69;;;20.46;58.38
84188;BME280;74316;45.648;13.764;2024-01-06T11:14:59;99885.53;;;20.53;57.88
84188;BME280;74316;45.648;13.764;2024-01-06T11:17:55;99879.16;;;20.54;58.04
84188;BME280;74316;45.648;13.764;2024-01-06T11:20:26;99881.34;;;20.57;58.07
84188;BME280;74316;45.648;13.764;2024-01-06T11:22:54;99875.75;;;20.58;58.25
84188;BME280;74316;45.648;13.764;2024-01-06T11:25:26;99879.81;;;20.61;58.58
84188;BME280;74316;45.648;13.764;2024-01-06T11:27:53;99876.88;;;20.62;57.83
84188;BME280;74316;45.648;13.764;2024-01-06T11:30:26;99879.13;;;20.65;58.74
84188;BME280;74316;45.648;13.764;2024-01-06T11:32:56;99875.16;;;20.68;57.93
84188;BME280;74316;45.648;13.764;2024-01-06T11:35:29;99877.09;;;20.73;58.50
84188;BME280;74316;45.648;13.764;2024-01-06T11:37:57;99872.09;;;20.76;58.70
84188;BME280;74316;45.648;13.764;2024-01-06T11:40:32;99871.94;;;20.83;58.64
84188;BME280;74316;45.648;13.764;2024-01-06T11:45:30;99858.66;;;20.88;58.21
84188;BME280;74316;45.648;13.764;2024-01-06T11:48:02;99880.78;;;20.95;58.43
84188;BME280;74316;45.648;13.764;2024-01-06T11:50:47;99861.28;;;20.99;58.32
84188;BME280;74316;45.648;13.764;2024-01-06T11:53:18;99860.34;;;21.06;57.84
84188;BME280;74316;45.648;13.764;2024-01-06T11:55:43;99868.94;;;21.08;58.25
84188;BME280;74316;45.648;13.764;2024-01-06T11:58:09;99861.47;;;21.10;57.37
84188;BME280;74316;45.648;13.764;2024-01-06T12:00:35;99852.69;;;21.14;57.27
84188;BME280;74316;45.648;13.764;2024-01-06T12:03:04;99854.09;;;21.17;56.93
84188;BME280;74316;45.648;13.764;2024-01-06T12:05:30;99857.09;;;21.20;57.56
84188;BME280;74316;45.648;13.764;2024-01-06T12:08:01;99851.50;;;21.22;57.42
84188;BME280;74316;45.648;13.764;2024-01-06T12:10:28;99846.13;;;21.22;57.29
84188;BME280;74316;45.648;13.764;2024-01-06T12:12:59;99846.47;;;21.25;56.85
84188;BME280;74316;45.648;13.764;2024-01-06T12:15:26;99841.72;;;21.27;57.61
84188;BME280;74316;45.648;13.764;2024-01-06T12:17:51;99847.09;;;21.27;57.52
84188;BME280;74316;45.648;13.764;2024-01-06T12:20:17;99849.53;;;21.29;56.62
84188;BME280;74316;45.648;13.764;2024-01-06T12:22:43;99847.66;;;21.30;56.89
84188;BME280;74316;45.648;13.764;2024-01-06T12:25:09;99846.59;;;21.31;56.75
84188;BME280;74316;45.648;13.764;2024-01-06T12:27:44;99838.78;;;21.29;56.98
84188;BME280;74316;45.648;13.764;2024-01-06T12:30:20;99842.84;;;21.32;56.44
84188;BME280;74316;45.648;13.764;2024-01-06T12:32:48;99843.66;;;21.32;57.41
84188;BME280;74316;45.648;13.764;2024-01-06T12:35:17;99837.47;;;21.32;56.73
84188;BME280;74316;45.648;13.764;2024-01-06T12:37:43;99829.69;;;21.30;56.90
84188;BME280;74316;45.648;13.764;2024-01-06T12:40:11;99835.03;;;21.30;56.32
84188;BME280;74316;45.648;13.764;2024-01-06T12:42:38;99835.03;;;21.30;57.42
84188;BME280;74316;45.648;13.764;2024-01-06T12:45:04;99837.16;;;21.28;58.51
84188;BME280;74316;45.648;13.764;2024-01-06T12:47:30;99832.59;;;21.28;57.99